sensor_id;sensor_type;location;lat;lon;timestamp;pressure;altitude;pressure_sealevel;temperature;humidity
58373;BME280;44177;43.356;27.672;2023-03-21T00:00:16;98167.22;;;4.93;100.00
58373;BME280;44177;43.356;27.672;2023-03-21T00:02:41;98173.59;;;5.06;100.00
58373;BME280;44177;43.356;27.672;2023-03-21T00:05:07;98178.41;;;5.09;100.00
58373;BME280;44177;43.356;27.672;2023-03-21T00:07:32;98184.44;;;5.06;100.00
58373;BME280;44177;43.356;27.672;2023-03-21T00:09:58;98172.81;;;5.05;100.00
58373;BME280;44177;43.356;27.672;2023-03-21T00:12:23;98175.22;;;5.07;100.00
58373;BME280;44177;43.356;27.672;2023-03-21T00:14:49;98158.53;;;5.05;100.00
58373;BME280;44177;43.356;27.672;2023-03-21T00:17:14;98151.19;;;5.05;100.00
58373;BME280;44177;43.356;27.672;2023-03-21T00:19:40;98150.69;;;5.03;100.00
58373;BME280;44177;43.356;27.672;2023-03-21T00:22:06;98149.44;;;5.10;100.00
58373;BME280;44177;43.356;27.672;2023-03-21T00:24:32;98150.59;;;5.09;100.00
58373;BME280;44177;43.356;27.672;2023-03-21T00:26:58;98146.28;;;5.08;100.00
58373;BME280;44177;43.356;27.672;2023-03-21T00:29:23;98137.19;;;5.03;100.00
58373;BME280;44177;43.356;27.672;2023-03-21T00:31:49;98131.16;;;5.06;100.00
58373;BME280;44177;43.356;27.672;2023-03-21T00:34:14;98133.38;;;5.04;100.00
58373;BME280;44177;43.356;27.672;2023-03-21T00:36:40;98130.16;;;5.02;100.00
58373;BME280;44177;43.356;27.672;2023-03-21T00:39:06;98136.47;;;4.89;100.00
58373;BME280;44177;43.356;27.672;2023-03-21T00:41:32;98133.00;;;4.88;100.00
58373;BME280;44177;43.356;27.672;2023-03-21T00:43:58;98141.44;;;4.96;100.00
58373;BME280;44177;43.356;27.672;2023-03-21T00:46:23;98135.69;;;4.88;100.00
58373;BME280;44177;43.356;27.672;2023-03-21T00:48:49;98135.06;;;4.92;100.00
58373;BME280;44177;43.356;27.672;2023-03-21T00:51:21;98142.25;;;4.96;100.00
58373;BME280;44177;43.356;27.672;2023-03-21T00:53:57;98128.38;;;4.89;100.00
58373;BME280;44177;43.356;27.672;2023-03-21T00:56:22;98124.56;;;4.90;100.00
58373;BME280;44177;43.356;27.672;2023-03-21T00:58:48;98109.19;;;4.68;100.00
58373;BME280;44177;43.356;27.672;2023-03-21T01:01:14;98141.53;;;4.82;100.00
58373;BME280;44177;43.356;27.672;2023-03-21T01:03:39;98130.84;;;4.77;100.00
58373;BME280;44177;43.356;27.672;2023-03-21T01:06:15;98131.66;;;4.77;100.00
58373;BME280;44177;43.356;27.672;2023-03-21T01:08:44;98119.06;;;4.72;100.00
58373;BME280;44177;43.356;27.672;2023-03-21T01:11:13;98124.16;;;4.74;100.00
58373;BME280;44177;43.356;27.672;2023-03-21T01:13:40;98122.06;;;4.71;100.00
58373;BME280;44177;43.356;27.672;2023-03-21T01:16:08;98092.44;;;4.57;100.00
58373;BME280;44177;43.356;27.672;2023-03-21T01:18:35;98112.88;;;4.72;100.00
58373;BME280;44177;43.356;27.672;2023-03-21T01:21:04;98106.81;;;4.75;100.00
58373;BME280;44177;43.356;27.672;2023-03-21T01:23:30;98111.63;;;4.78;100.00
58373;BME280;44177;43.356;27.672;2023-03-21T01:25:56;98082.06;;;4.82;100.00
58373;BME280;44177;43.356;27.672;2023-03-21T01:28:23;98078.09;;;4.79;100.00
58373;BME280;44177;43.356;27.672;2023-03-21T01:30:50;98079.38;;;4.82;100.00
58373;BME280;44177;43.356;27.672;2023-03-21T01:33:17;98060.88;;;4.75;100.00
58373;BME280;44177;43.356;27.672;2023-03-21T01:35:43;98066.28;;;4.75;100.00
58373;BME280;44177;43.356;27.672;2023-03-21T01:38:09;98078.69;;;4.76;100.00
58373;BME280;44177;43.356;27.672;2023-03-21T01:40:36;98088.22;;;4.73;100.00
58373;BME280;44177;43.356;27.672;2023-03-21T01:43:02;98105.13;;;4.79;100.00
58373;BME280;44177;43.356;27.672;2023-03-21T01:48:27;98115.00;;;4.84;100.00
58373;BME280;44177;43.356;27.672;2023-03-21T01:50:54;98115.09;;;4.79;100.00
58373;BME280;44177;43.356;27.672;2023-03-21T01:53:21;98112.13;;;4.80;100.00
58373;BME280;44177;43.356;27.672;2023-03-21T01:55:48;98115.47;;;4.86;100.00
58373;BME280;44177;43.356;27.672;2023-03-21T01:58:15;98104.78;;;4.81;100.00
58373;BME280;44177;43.356;27.672;2023-03-21T02:00:46;98100.50;;;4.80;100.00
58373;BME280;44177;43.356;27.672;2023-03-21T02:03:14;98103.50;;;4.78;100.00
58373;BME280;44177;43.356;27.672;2023-03-21T02:05:52;98101.13;;;4.77;100.00
58373;BME280;44177;43.356;27.672;2023-03-21T02:08:21;98104.44;;;4.73;100.00
58373;BME280;44177;43.356;27.672;2023-03-21T02:10:48;98094.06;;;4.67;100.00
58373;BME280;44177;43.356;27.672;2023-03-21T02:13:14;98097.75;;;4.71;100.00
58373;BME280;44177;43.356;27.672;2023-03-21T02:15:45;98112.22;;;4.75;100.00
58373;BME280;44177;43.356;27.672;2023-03-21T02:18:29;98107.63;;;4.76;100.00
58373;BME280;44177;43.356;27.672;2023-03-21T02:27:10;98105.63;;;4.90;100.00
58373;BME280;44177;43.356;27.672;2023-03-21T02:38:03;98095.78;;;4.94;100.00
58373;BME280;44177;43.356;27.672;2023-03-21T02:40:39;98091.31;;;4.89;100.00
58373;BME280;44177;43.356;27.672;2023-03-21T02:43:51;98082.16;;;4.99;100.00
58373;BME280;44177;43.356;27.672;2023-03-21T02:46:09;98087.06;;;4.97;100.00
58373;BME280;44177;43.356;27.672;2023-03-21T02:48:45;98086.91;;;5.02;100.00
58373;BME280;44177;43.356;27.672;2023-03-21T02:51:16;98081.66;;;4.97;100.00
58373;BME280;44177;43.356;27.672;2023-03-21T02:53:46;98082.16;;;4.99;100.00
58373;BME280;44177;43.356;27.672;2023-03-21T02:56:14;98084.34;;;4.97;100.00
58373;BME280;44177;43.356;27.672;2023-03-21T02:58:40;98080.56;;;4.98;100.00
58373;BME280;44177;43.356;27.672;2023-03-21T03:01:07;98070.53;;;4.99;100.00
58373;BME280;44177;43.356;27.672;2023-03-21T03:03:33;98083.28;;;5.07;100.00
58373;BME280;44177;43.356;27.672;2023-03-21T03:06:03;98083.44;;;5.02;100.00
58373;BME280;44177;43.356;27.672;2023-03-21T03:11:25;98091.03;;;5.00;100.00
58373;BME280;44177;43.356;27.672;2023-03-21T03:17:18;98079.44;;;4.99;100.00
58373;BME280;44177;43.356;27.672;2023-03-21T03:20:29;98093.44;;;5.01;100.00
58373;BME280;44177;43.356;27.672;2023-03-21T03:25:48;98085.97;;;4.98;100.00
58373;BME280;44177;43.356;27.672;2023-03-21T03:28:20;98092.63;;;5.01;100.00
58373;BME280;44177;43.356;27.672;2023-03-21T03:30:48;98090.25;;;4.99;100.00
58373;BME280;44177;43.356;27.672;2023-03-21T03:33:15;98086.31;;;5.05;100.00
58373;BME280;44177;43.356;27.672;2023-03-21T03:35:43;98080.28;;;5.09;100.00
58373;BME280;44177;43.356;27.672;2023-03-21T03:38:09;98092.66;;;5.10;100.00
58373;BME280;44177;43.356;27.672;2023-03-21T03:40:40;98099.31;;;5.03;100.00
58373;BME280;44177;43.356;27.672;2023-03-21T03:43:12;98092.63;;;5.01;100.00
58373;BME280;44177;43.356;27.672;2023-03-21T03:46:00;98079.44;;;4.99;100.00
58373;BME280;44177;43.356;27.672;2023-03-21T03:48:42;98075.94;;;4.99;100.00
58373;BME280;44177;43.356;27.672;2023-03-21T03:51:18;98065.75;;;4.96;100.00
58373;BME280;44177;43.356;27.672;2023-03-21T03:53:54;98077.19;;;4.93;100.00
58373;BME280;44177;43.356;27.672;2023-03-21T03:56:21;98061.78;;;4.93;100.00
58373;BME280;44177;43.356;27.672;2023-03-21T03:58:49;98059.69;;;4.90;100.00
58373;BME280;44177;43.356;27.672;2023-03-21T04:01:15;98034.69;;;4.84;100.00
58373;BME280;44177;43.356;27.672;2023-03-21T04:03:44;98071.53;;;5.12;100.00
58373;BME280;44177;43.356;27.672;2023-03-21T04:06:11;98081.09;;;5.18;100.00
58373;BME280;44177;43.356;27.672;2023-03-21T04:08:37;98066.25;;;5.06;100.00
58373;BME280;44177;43.356;27.672;2023-03-21T04:11:03;98076.44;;;5.10;100.00
58373;BME280;44177;43.356;27.672;2023-03-21T04:13:29;98066.75;;;5.09;100.00
58373;BME280;44177;43.356;27.672;2023-03-21T04:15:54;98067.88;;;5.16;100.00
58373;BME280;44177;43.356;27.672;2023-03-21T04:18:21;98064.84;;;5.18;100.00
58373;BME280;44177;43.356;27.672;2023-03-21T04:20:48;98066.59;;;5.14;100.00
58373;BME280;44177;43.356;27.672;2023-03-21T04:23:15;98039.50;;;4.96;100.00
58373;BME280;44177;43.356;27.672;2023-03-21T04:25:43;98069.94;;;5.11;100.00
58373;BME280;44177;43.356;27.672;2023-03-21T04:28:09;98069.13;;;5.10;100.00
58373;BME280;44177;43.356;27.672;2023-03-21T04:30:35;98072.28;;;5.03;100.00
58373;BME280;44177;43.356;27.672;2023-03-21T04:33:00;98074.41;;;5.15;100.00
58373;BME280;44177;43.356;27.672;2023-03-21T04:35:26;98071.41;;;5.17;100.00
58373;BME280;44177;43.356;27.672;2023-03-21T04:37:52;98072.34;;;5.21;100.00
58373;BME280;44177;43.356;27.672;2023-03-21T04:40:18;98072.69;;;5.28;100.00
58373;BME280;44177;43.356;27.672;2023-03-21T04:42:45;98080.31;;;5.26;100.00
58373;BME280;44177;43.356;27.672;2023-03-21T04:45:11;98079.53;;;5.34;100.00
58373;BME280;44177;43.356;27.672;2023-03-21T04:47:37;98079.06;;;5.32;100.00
58373;BME280;44177;43.356;27.672;2023-03-21T04:50:03;98066.78;;;5.26;100.00
58373;BME280;44177;43.356;27.672;2023-03-21T04:52:29;98053.41;;;5.21;100.00
58373;BME280;44177;43.356;27.672;2023-03-21T04:54:54;98059.75;;;5.16;100.00
58373;BME280;44177;43.356;27.672;2023-03-21T04:57:20;98070.47;;;5.30;100.00
58373;BME280;44177;43.356;27.672;2023-03-21T04:59:45;98069.50;;;5.26;100.00
58373;BME280;44177;43.356;27.672;2023-03-21T05:02:11;98076.06;;;5.34;100.00
58373;BME280;44177;43.356;27.672;2023-03-21T05:04:37;98065.72;;;5.36;100.00
58373;BME280;44177;43.356;27.672;2023-03-21T05:07:03;98067.00;;;5.38;100.00
58373;BME280;44177;43.356;27.672;2023-03-21T05:09:29;98070.81;;;5.37;100.00
58373;BME280;44177;43.356;27.672;2023-03-21T05:11:54;98063.81;;;5.36;100.00
58373;BME280;44177;43.356;27.672;2023-03-21T05:14:22;98079.41;;;5.40;100.00
58373;BME280;44177;43.356;27.672;2023-03-21T05:16:49;98086.22;;;5.37;100.00
58373;BME280;44177;43.356;27.672;2023-03-21T05:19:22;98094.03;;;5.38;100.00
58373;BME280;44177;43.356;27.672;2023-03-21T05:21:48;98098.19;;;5.45;100.00
58373;BME280;44177;43.356;27.672;2023-03-21T05:24:19;98102.34;;;5.51;100.00
58373;BME280;44177;43.356;27.672;2023-03-21T05:26:46;98106.47;;;5.57;100.00
58373;BME280;44177;43.356;27.672;2023-03-21T05:29:17;98107.47;;;5.61;100.00
58373;BME280;44177;43.356;27.672;2023-03-21T05:31:44;98081.78;;;5.41;100.00
58373;BME280;44177;43.356;27.672;2023-03-21T05:34:11;98104.25;;;5.59;100.00
58373;BME280;44177;43.356;27.672;2023-03-21T05:36:36;98106.81;;;5.47;100.00
58373;BME280;44177;43.356;27.672;2023-03-21T05:39:03;98104.44;;;5.54;100.00
58373;BME280;44177;43.356;27.672;2023-03-21T05:41:29;98102.50;;;5.46;100.00
58373;BME280;44177;43.356;27.672;2023-03-21T05:43:55;98106.16;;;5.50;100.00
58373;BME280;44177;43.356;27.672;2023-03-21T05:46:20;98100.00;;;5.67;100.00
58373;BME280;44177;43.356;27.672;2023-03-21T05:48:46;98089.16;;;5.76;100.00
58373;BME280;44177;43.356;27.672;2023-03-21T05:51:11;98096.00;;;5.82;100.00
58373;BME280;44177;43.356;27.672;2023-03-21T05:53:37;98099.69;;;5.86;100.00
58373;BME280;44177;43.356;27.672;2023-03-21T05:56:02;98107.31;;;5.93;100.00
58373;BME280;44177;43.356;27.672;2023-03-21T05:58:28;98103.50;;;5.94;100.00
58373;BME280;44177;43.356;27.672;2023-03-21T06:00:54;98112.31;;;5.99;100.00
58373;BME280;44177;43.356;27.672;2023-03-21T06:03:19;98110.09;;;6.02;100.00
58373;BME280;44177;43.356;27.672;2023-03-21T06:05:45;98116.75;;;6.13;100.00
58373;BME280;44177;43.356;27.672;2023-03-21T06:08:10;98115.97;;;6.12;100.00
58373;BME280;44177;43.356;27.672;2023-03-21T06:10:36;98121.38;;;6.21;100.00
58373;BME280;44177;43.356;27.672;2023-03-21T06:13:02;98123.63;;;6.28;100.00
58373;BME280;44177;43.356;27.672;2023-03-21T06:15:27;98114.38;;;6.29;100.00
58373;BME280;44177;43.356;27.672;2023-03-21T06:17:52;98104.16;;;6.43;100.00
58373;BME280;44177;43.356;27.672;2023-03-21T06:20:18;98109.22;;;6.62;100.00
58373;BME280;44177;43.356;27.672;2023-03-21T06:22:43;98119.25;;;6.71;100.00
58373;BME280;44177;43.356;27.672;2023-03-21T06:25:09;98120.69;;;6.59;100.00
58373;BME280;44177;43.356;27.672;2023-03-21T06:27:36;98111.44;;;6.60;100.00
58373;BME280;44177;43.356;27.672;2023-03-21T06:30:03;98103.63;;;6.68;100.00
58373;BME280;44177;43.356;27.672;2023-03-21T06:32:29;98086.28;;;6.60;100.00
58373;BME280;44177;43.356;27.672;2023-03-21T06:34:55;98085.00;;;6.57;100.00
58373;BME280;44177;43.356;27.672;2023-03-21T06:37:21;98086.59;;;6.50;100.00
58373;BME280;44177;43.356;27.672;2023-03-21T06:39:46;98094.41;;;6.51;100.00
58373;BME280;44177;43.356;27.672;2023-03-21T06:42:13;98100.00;;;6.55;100.00
58373;BME280;44177;43.356;27.672;2023-03-21T06:44:38;98089.47;;;6.53;100.00
58373;BME280;44177;43.356;27.672;2023-03-21T06:47:04;98097.28;;;6.55;100.00
58373;BME280;44177;43.356;27.672;2023-03-21T06:49:30;98086.94;;;6.48;100.00
58373;BME280;44177;43.356;27.672;2023-03-21T06:51:55;98080.09;;;6.42;100.00
58373;BME280;44177;43.356;27.672;2023-03-21T06:54:21;98090.75;;;6.47;100.00
58373;BME280;44177;43.356;27.672;2023-03-21T06:56:46;98075.66;;;6.37;100.00
58373;BME280;44177;43.356;27.672;2023-03-21T06:59:12;98060.50;;;6.36;100.00
58373;BME280;44177;43.356;27.672;2023-03-21T07:01:37;98070.69;;;6.39;100.00
58373;BME280;44177;43.356;27.672;2023-03-21T07:04:03;98066.22;;;6.43;100.00
58373;BME280;44177;43.356;27.672;2023-03-21T07:06:29;98064.78;;;6.55;100.00
58373;BME280;44177;43.356;27.672;2023-03-21T07:08:55;98052.50;;;6.48;100.00
58373;BME280;44177;43.356;27.672;2023-03-21T07:11:21;98042.16;;;6.42;100.00
58373;BME280;44177;43.356;27.672;2023-03-21T07:13:47;98024.00;;;6.25;100.00
58373;BME280;44177;43.356;27.672;2023-03-21T07:16:14;98028.03;;;6.27;100.00
58373;BME280;44177;43.356;27.672;2023-03-21T07:18:40;98024.47;;;6.36;100.00
58373;BME280;44177;43.356;27.672;2023-03-21T07:21:06;98060.63;;;6.48;100.00
58373;BME280;44177;43.356;27.672;2023-03-21T07:23:31;98104.63;;;6.54;100.00
58373;BME280;44177;43.356;27.672;2023-03-21T07:25:57;98100.63;;;6.60;100.00
58373;BME280;44177;43.356;27.672;2023-03-21T07:28:23;98083.53;;;6.69;100.00
58373;BME280;44177;43.356;27.672;2023-03-21T07:30:57;98102.50;;;6.69;100.00
58373;BME280;44177;43.356;27.672;2023-03-21T07:33:23;98096.97;;;6.56;100.00
58373;BME280;44177;43.356;27.672;2023-03-21T07:35:50;98110.63;;;6.69;100.00
58373;BME280;44177;43.356;27.672;2023-03-21T07:38:16;98128.34;;;6.66;100.00
58373;BME280;44177;43.356;27.672;2023-03-21T07:40:43;98099.66;;;6.74;100.00
58373;BME280;44177;43.356;27.672;2023-03-21T07:43:09;98083.19;;;6.79;100.00
58373;BME280;44177;43.356;27.672;2023-03-21T07:45:35;98082.22;;;6.84;100.00
58373;BME280;44177;43.356;27.672;2023-03-21T07:48:00;98098.97;;;6.86;100.00
58373;BME280;44177;43.356;27.672;2023-03-21T07:50:26;98111.56;;;6.90;100.00
58373;BME280;44177;43.356;27.672;2023-03-21T07:52:52;98104.22;;;6.91;100.00
58373;BME280;44177;43.356;27.672;2023-03-21T07:55:18;98106.72;;;7.05;100.00
58373;BME280;44177;43.356;27.672;2023-03-21T07:57:44;98101.72;;;7.16;100.00
58373;BME280;44177;43.356;27.672;2023-03-21T08:00:11;98095.19;;;7.17;100.00
58373;BME280;44177;43.356;27.672;2023-03-21T08:02:37;98100.00;;;7.41;100.00
58373;BME280;44177;43.356;27.672;2023-03-21T08:05:03;98128.81;;;7.54;100.00
58373;BME280;44177;43.356;27.672;2023-03-21T08:07:29;98134.63;;;7.74;100.00
58373;BME280;44177;43.356;27.672;2023-03-21T08:09:55;98121.38;;;7.72;100.00
58373;BME280;44177;43.356;27.672;2023-03-21T08:12:20;98133.91;;;7.86;100.00
58373;BME280;44177;43.356;27.672;2023-03-21T08:14:46;98120.66;;;7.84;100.00
58373;BME280;44177;43.356;27.672;2023-03-21T08:17:11;98112.97;;;7.86;100.00
58373;BME280;44177;43.356;27.672;2023-03-21T08:19:37;98106.09;;;7.89;100.00
58373;BME280;44177;43.356;27.672;2023-03-21T08:22:02;98116.28;;;7.92;100.00
58373;BME280;44177;43.356;27.672;2023-03-21T08:24:31;98099.00;;;8.18;100.00
58373;BME280;44177;43.356;27.672;2023-03-21T08:26:59;98114.81;;;8.37;100.00
58373;BME280;44177;43.356;27.672;2023-03-21T08:29:24;98116.16;;;8.52;100.00
58373;BME280;44177;43.356;27.672;2023-03-21T08:31:50;98117.59;;;8.49;99.59
58373;BME280;44177;43.356;27.672;2023-03-21T08:34:15;98115.72;;;8.41;98.86
58373;BME280;44177;43.356;27.672;2023-03-21T08:36:42;98111.63;;;8.35;98.48
58373;BME280;44177;43.356;27.672;2023-03-21T08:39:08;98096.78;;;8.32;99.01
58373;BME280;44177;43.356;27.672;2023-03-21T08:41:36;98089.41;;;8.33;99.13
58373;BME280;44177;43.356;27.672;2023-03-21T08:44:03;98070.81;;;8.22;99.85
58373;BME280;44177;43.356;27.672;2023-03-21T08:46:29;98073.41;;;8.19;100.00
58373;BME280;44177;43.356;27.672;2023-03-21T08:48:54;98080.75;;;8.18;100.00
58373;BME280;44177;43.356;27.672;2023-03-21T08:51:20;98090.84;;;8.18;100.00
58373;BME280;44177;43.356;27.672;2023-03-21T08:53:45;98084.75;;;8.00;100.00
58373;BME280;44177;43.356;27.672;2023-03-21T08:56:11;98087.00;;;7.98;100.00
58373;BME280;44177;43.356;27.672;2023-03-21T08:58:37;98105.44;;;8.13;100.00
58373;BME280;44177;43.356;27.672;2023-03-21T09:01:04;98112.31;;;8.32;100.00
58373;BME280;44177;43.356;27.672;2023-03-21T09:03:31;98107.78;;;8.36;100.00
58373;BME280;44177;43.356;27.672;2023-03-21T09:05:56;98100.91;;;8.17;100.00
58373;BME280;44177;43.356;27.672;2023-03-21T09:08:23;98103.19;;;8.15;100.00
58373;BME280;44177;43.356;27.672;2023-03-21T09:10:52;98097.66;;;8.24;100.00
58373;BME280;44177;43.356;27.672;2023-03-21T09:13:17;98108.44;;;8.33;100.00
58373;BME280;44177;43.356;27.672;2023-03-21T09:15:43;98108.44;;;8.54;98.88
58373;BME280;44177;43.356;27.672;2023-03-21T09:18:10;98108.66;;;8.49;98.14
58373;BME280;44177;43.356;27.672;2023-03-21T09:20:41;98093.22;;;8.19;98.86
58373;BME280;44177;43.356;27.672;2023-03-21T09:23:08;98099.47;;;8.20;99.96
58373;BME280;44177;43.356;27.672;2023-03-21T09:25:35;98121.03;;;8.59;100.00
58373;BME280;44177;43.356;27.672;2023-03-21T09:28:03;98128.31;;;8.67;98.33
58373;BME280;44177;43.356;27.672;2023-03-21T09:30:30;98118.53;;;8.53;98.16
58373;BME280;44177;43.356;27.672;2023-03-21T09:33:00;98119.06;;;8.47;98.47
58373;BME280;44177;43.356;27.672;2023-03-21T09:35:28;98126.00;;;8.57;99.34
58373;BME280;44177;43.356;27.672;2023-03-21T09:37:54;98131.50;;;8.69;97.90
58373;BME280;44177;43.356;27.672;2023-03-21T09:49:41;98122.84;;;8.55;97.38
58373;BME280;44177;43.356;27.672;2023-03-21T09:52:18;98135.47;;;8.72;97.51
58373;BME280;44177;43.356;27.672;2023-03-21T09:54:46;98130.38;;;8.70;96.79
58373;BME280;44177;43.356;27.672;2023-03-21T09:57:42;98123.06;;;8.95;96.61
58373;BME280;44177;43.356;27.672;2023-03-21T10:00:17;98120.25;;;9.29;95.37
58373;BME280;44177;43.356;27.672;2023-03-21T10:02:51;98115.50;;;9.38;92.66
58373;BME280;44177;43.356;27.672;2023-03-21T10:05:19;98120.59;;;9.64;90.67
58373;BME280;44177;43.356;27.672;2023-03-21T10:10:20;98118.47;;;9.58;89.26
58373;BME280;44177;43.356;27.672;2023-03-21T10:12:49;98123.19;;;9.36;89.93
58373;BME280;44177;43.356;27.672;2023-03-21T10:15:20;98119.81;;;9.39;90.20
58373;BME280;44177;43.356;27.672;2023-03-21T10:18:00;98122.88;;;9.62;90.11
58373;BME280;44177;43.356;27.672;2023-03-21T10:20:32;98111.34;;;9.94;87.87
58373;BME280;44177;43.356;27.672;2023-03-21T10:23:00;98116.53;;;10.11;87.00
58373;BME280;44177;43.356;27.672;2023-03-21T10:25:31;98106.81;;;9.86;86.12
58373;BME280;44177;43.356;27.672;2023-03-21T10:27:57;98114.72;;;9.62;87.15
58373;BME280;44177;43.356;27.672;2023-03-21T10:33:02;98102.53;;;9.72;87.04
58373;BME280;44177;43.356;27.672;2023-03-21T10:35:30;98106.38;;;9.84;87.25
58373;BME280;44177;43.356;27.672;2023-03-21T10:37:59;98111.94;;;9.87;86.21
58373;BME280;44177;43.356;27.672;2023-03-21T10:40:25;98104.53;;;10.00;85.13
58373;BME280;44177;43.356;27.672;2023-03-21T10:43:13;98107.69;;;10.02;85.26
58373;BME280;44177;43.356;27.672;2023-03-21T10:45:39;98115.81;;;10.27;85.55
58373;BME280;44177;43.356;27.672;2023-03-21T10:48:06;98118.53;;;10.27;86.06
58373;BME280;44177;43.356;27.672;2023-03-21T10:50:34;98116.69;;;10.31;83.71
58373;BME280;44177;43.356;27.672;2023-03-21T10:53:00;98101.38;;;10.55;83.07
58373;BME280;44177;43.356;27.672;2023-03-21T10:55:30;98094.13;;;10.59;82.20
58373;BME280;44177;43.356;27.672;2023-03-21T10:58:05;98096.06;;;10.74;82.25
58373;BME280;44177;43.356;27.672;2023-03-21T11:00:41;98098.03;;;11.06;81.85
58373;BME280;44177;43.356;27.672;2023-03-21T11:05:46;98082.56;;;12.56;74.93
58373;BME280;44177;43.356;27.672;2023-03-21T11:08:14;98077.09;;;13.03;72.29
58373;BME280;44177;43.356;27.672;2023-03-21T11:13:32;98073.56;;;13.25;69.21
58373;BME280;44177;43.356;27.672;2023-03-21T11:16:25;98066.53;;;13.28;69.32
58373;BME280;44177;43.356;27.672;2023-03-21T11:18:55;98066.22;;;12.83;69.61
58373;BME280;44177;43.356;27.672;2023-03-21T11:21:20;98063.59;;;13.14;70.38
58373;BME280;44177;43.356;27.672;2023-03-21T11:23:53;98055.78;;;13.39;68.35
58373;BME280;44177;43.356;27.672;2023-03-21T11:26:34;98053.56;;;13.48;69.29
58373;BME280;44177;43.356;27.672;2023-03-21T11:31:42;98024.00;;;13.92;67.59
58373;BME280;44177;43.356;27.672;2023-03-21T11:36:58;98034.88;;;14.52;65.21
58373;BME280;44177;43.356;27.672;2023-03-21T11:41:51;98032.34;;;14.74;65.35
58373;BME280;44177;43.356;27.672;2023-03-21T11:44:43;98031.41;;;14.59;65.68
58373;BME280;44177;43.356;27.672;2023-03-21T11:47:09;98033.66;;;14.50;66.52
58373;BME280;44177;43.356;27.672;2023-03-21T11:49:35;98030.81;;;14.05;66.28
58373;BME280;44177;43.356;27.672;2023-03-21T11:52:17;98028.59;;;14.14;67.53
58373;BME280;44177;43.356;27.672;2023-03-21T11:55:13;98030.00;;;13.70;67.80
58373;BME280;44177;43.356;27.672;2023-03-21T11:58:00;98031.28;;;13.80;70.26
58373;BME280;44177;43.356;27.672;2023-03-21T12:00:31;98026.53;;;13.77;68.16
58373;BME280;44177;43.356;27.672;2023-03-21T12:03:38;98019.88;;;13.44;68.76
58373;BME280;44177;43.356;27.672;2023-03-21T12:11:58;98028.75;;;13.14;70.39
58373;BME280;44177;43.356;27.672;2023-03-21T12:17:13;98034.38;;;12.98;70.96
58373;BME280;44177;43.356;27.672;2023-03-21T12:41:18;98021.81;;;11.33;77.74
58373;BME280;44177;43.356;27.672;2023-03-21T12:51:26;98014.19;;;10.58;81.06
58373;BME280;44177;43.356;27.672;2023-03-21T12:54:07;98014.34;;;10.34;81.63
58373;BME280;44177;43.356;27.672;2023-03-21T12:56:34;98014.56;;;10.28;83.23
58373;BME280;44177;43.356;27.672;2023-03-21T13:01:49;98002.56;;;10.01;83.15
58373;BME280;44177;43.356;27.672;2023-03-21T13:07:17;97996.13;;;9.93;84.14
58373;BME280;44177;43.356;27.672;2023-03-21T13:09:45;97992.34;;;9.70;85.28
58373;BME280;44177;43.356;27.672;2023-03-21T13:17:40;97993.56;;;9.31;87.19
58373;BME280;44177;43.356;27.672;2023-03-21T13:23:10;97985.84;;;9.33;87.61
58373;BME280;44177;43.356;27.672;2023-03-21T13:25:50;97996.16;;;9.40;88.36
58373;BME280;44177;43.356;27.672;2023-03-21T13:28:27;97986.88;;;9.41;87.99
58373;BME280;44177;43.356;27.672;2023-03-21T13:30:52;97986.75;;;9.25;88.57
58373;BME280;44177;43.356;27.672;2023-03-21T13:33:38;97981.00;;;9.27;88.65
58373;BME280;44177;43.356;27.672;2023-03-21T13:36:12;97982.13;;;9.13;89.27
58373;BME280;44177;43.356;27.672;2023-03-21T13:38:38;97993.00;;;9.13;90.43
58373;BME280;44177;43.356;27.672;2023-03-21T13:41:07;97996.19;;;9.15;89.64
58373;BME280;44177;43.356;27.672;2023-03-21T13:46:10;97993.03;;;9.01;90.65
58373;BME280;44177;43.356;27.672;2023-03-21T13:51:07;97991.09;;;8.77;91.84
58373;BME280;44177;43.356;27.672;2023-03-21T13:53:40;98009.13;;;8.69;92.69
58373;BME280;44177;43.356;27.672;2023-03-21T14:01:31;98006.75;;;8.34;94.89
58373;BME280;44177;43.356;27.672;2023-03-21T14:04:16;98006.63;;;8.30;95.96
58373;BME280;44177;43.356;27.672;2023-03-21T14:06:47;98006.50;;;8.27;95.49
58373;BME280;44177;43.356;27.672;2023-03-21T14:09:20;98008.72;;;8.12;95.99
58373;BME280;44177;43.356;27.672;2023-03-21T14:11:46;98002.34;;;7.96;96.34
58373;BME280;44177;43.356;27.672;2023-03-21T14:14:13;98010.00;;;7.94;97.14
58373;BME280;44177;43.356;27.672;2023-03-21T14:16:40;97998.25;;;7.89;98.42
58373;BME280;44177;43.356;27.672;2023-03-21T14:19:06;97991.75;;;7.82;97.74
58373;BME280;44177;43.356;27.672;2023-03-21T14:21:33;97998.50;;;7.75;98.48
58373;BME280;44177;43.356;27.672;2023-03-21T14:26:34;98003.81;;;7.93;99.66
58373;BME280;44177;43.356;27.672;2023-03-21T14:29:05;98014.41;;;7.86;98.22
58373;BME280;44177;43.356;27.672;2023-03-21T14:31:32;98011.22;;;7.84;98.17
58373;BME280;44177;43.356;27.672;2023-03-21T14:34:00;97981.31;;;7.71;97.96
58373;BME280;44177;43.356;27.672;2023-03-21T14:36:29;97996.53;;;7.85;97.67
58373;BME280;44177;43.356;27.672;2023-03-21T14:41:30;98000.50;;;7.87;98.30
58373;BME280;44177;43.356;27.672;2023-03-21T14:46:34;97994.03;;;7.80;97.22
58373;BME280;44177;43.356;27.672;2023-03-21T14:49:16;97995.66;;;7.72;97.47
58373;BME280;44177;43.356;27.672;2023-03-21T14:51:42;98003.22;;;7.66;97.93
58373;BME280;44177;43.356;27.672;2023-03-21T14:54:13;98003.56;;;7.65;98.30
58373;BME280;44177;43.356;27.672;2023-03-21T14:56:44;98005.53;;;7.55;98.39
58373;BME280;44177;43.356;27.672;2023-03-21T14:59:15;98008.47;;;7.50;98.88
58373;BME280;44177;43.356;27.672;2023-03-21T15:01:42;98005.69;;;7.38;99.45
58373;BME280;44177;43.356;27.672;2023-03-21T15:04:11;98004.41;;;7.35;100.00